Apsheronsk, Russia
Current Conditions -  °F | °C
As of 3:00 AM on Sunday 23 Nov 2014 (Local Time) from URKK Reporting Station
Few Clouds Few Clouds  
Wind Chill: 19°   Ceiling: Unl
Heat Index: 28°   Visibility: 6mi
Dew Point: 23°   Wind: 11mph
Humidity: 80%   Direction: 70°ENE
Pressure: 30.18"   Gusts: 18mph
Location:  44.46°N, 39.73°E
Report Text: URKK 230000Z 07005G08MPS 9999 FEW014 M02/M05 Q1022 NOSIG RMKQFE763 SC070
Loading
Personal Weather Stations






























Interactive Weather Map New forecast layout! Learn more

10-Day Weather Forecast

Advertisements
Track Severe Weather on mobile